createdAt,value
2018-01-27T00:02:24.000Z,41.035
2018-01-27T00:12:24.000Z,41.256
2018-01-27T00:22:24.000Z,41.188
2018-01-27T00:32:24.000Z,41.333
2018-01-27T00:42:24.000Z,41.241
2018-01-27T00:52:24.000Z,41.213
2018-01-27T01:02:24.000Z,41.209
2018-01-27T01:12:24.000Z,41.098
2018-01-27T01:22:25.000Z,41.428
2018-01-27T01:32:24.000Z,41.758
2018-01-27T01:42:24.000Z,41.83
2018-01-27T01:52:24.000Z,41.859
2018-01-27T02:02:25.000Z,41.995
2018-01-27T02:12:25.000Z,42.088
2018-01-27T02:22:25.000Z,42.118
2018-01-27T02:32:25.000Z,42.2
2018-01-27T02:42:25.000Z,42.196
2018-01-27T02:52:25.000Z,42.407
2018-01-27T03:02:25.000Z,42.436
2018-01-27T03:12:25.000Z,42.466
2018-01-27T03:22:25.000Z,42.538
2018-01-27T03:32:25.000Z,42.589
2018-01-27T03:42:25.000Z,42.543
2018-01-27T03:52:25.000Z,42.541
2018-01-27T04:02:25.000Z,42.613
2018-01-27T04:12:25.000Z,42.524
2018-01-27T04:22:25.000Z,42.521
2018-01-27T04:32:25.000Z,42.605
2018-01-27T04:42:25.000Z,42.505
2018-01-27T04:52:25.000Z,42.536
2018-01-27T05:02:25.000Z,42.449
2018-01-27T05:12:25.000Z,42.286
2018-01-27T05:22:25.000Z,42.327
2018-01-27T05:32:25.000Z,42.166
2018-01-27T05:42:25.000Z,42.088
2018-01-27T05:52:25.000Z,42.012
2018-01-27T06:02:25.000Z,41.818
2018-01-27T06:12:25.000Z,41.644
2018-01-27T06:22:25.000Z,41.556
2018-01-27T06:32:25.000Z,41.483
2018-01-27T06:42:25.000Z,41.256
2018-01-27T06:52:25.000Z,41.052
2018-01-27T07:02:25.000Z,40.944
2018-01-27T07:12:25.000Z,40.912
2018-01-27T07:22:25.000Z,40.642
2018-01-27T07:32:26.000Z,40.545
2018-01-27T07:42:25.000Z,40.437
2018-01-27T07:52:25.000Z,40.309
2018-01-27T08:02:25.000Z,40.244
2018-01-27T08:12:25.000Z,40.03
2018-01-27T08:22:25.000Z,40.018
2018-01-27T08:32:26.000Z,39.771
2018-01-27T08:42:25.000Z,39.673
2018-01-27T08:52:25.000Z,39.411
2018-01-27T09:02:25.000Z,38.865
2018-01-27T09:12:25.000Z,38.726
2018-01-27T09:22:25.000Z,38.43
2018-01-27T09:32:25.000Z,38.141
2018-01-27T09:42:25.000Z,36.765
2018-01-27T09:52:25.000Z,35.724
2018-01-27T10:02:25.000Z,35.223
2018-01-27T10:12:25.000Z,34.616
2018-01-27T10:22:25.000Z,34.07
2018-01-27T10:32:26.000Z,34.386
2018-01-27T10:42:26.000Z,34.848
2018-01-27T10:52:26.000Z,35.753
2018-01-27T11:02:26.000Z,36.024
2018-01-27T11:12:26.000Z,36.514
2018-01-27T11:22:26.000Z,36.644
2018-01-27T11:32:26.000Z,36.557
2018-01-27T11:42:26.000Z,36.537
2018-01-27T11:52:26.000Z,36.748
2018-01-27T12:02:26.000Z,36.849
2018-01-27T12:12:26.000Z,36.604
2018-01-27T12:22:26.000Z,37.037
2018-01-27T12:32:26.000Z,37.535
2018-01-27T12:42:26.000Z,37.503
2018-01-27T12:52:26.000Z,37.14
2018-01-27T13:02:26.000Z,36.753
2018-01-27T13:12:26.000Z,36.563
2018-01-27T13:22:26.000Z,36.052
2018-01-27T13:32:26.000Z,35.509
2018-01-27T13:42:26.000Z,35.037
2018-01-27T13:52:26.000Z,34.804
2018-01-27T14:02:26.000Z,34.032
2018-01-27T14:12:26.000Z,34.207
2018-01-27T14:22:26.000Z,34.262
2018-01-27T14:32:29.000Z,34.086
2018-01-27T14:42:26.000Z,34.01
2018-01-27T14:52:26.000Z,33.857
2018-01-27T15:02:26.000Z,34.217
2018-01-27T15:12:26.000Z,34.154
2018-01-27T15:22:26.000Z,34.493
2018-01-27T15:32:26.000Z,35.232
2018-01-27T15:42:26.000Z,36.337
2018-01-27T15:52:26.000Z,37.285
2018-01-27T16:02:26.000Z,38.326
2018-01-27T16:12:26.000Z,38.987
2018-01-27T16:22:26.000Z,39.388
2018-01-27T16:32:26.000Z,39.888
2018-01-27T16:42:26.000Z,40.154
2018-01-27T16:52:26.000Z,40.572
2018-01-27T17:02:26.000Z,40.762
2018-01-27T17:12:26.000Z,41.03
2018-01-27T17:22:26.000Z,41.362
2018-01-27T17:32:27.000Z,42.029
2018-01-27T17:42:26.000Z,41.785
2018-01-27T17:52:26.000Z,41.401
2018-01-27T18:02:26.000Z,41.878
2018-01-27T18:12:26.000Z,42.597
2018-01-27T18:22:26.000Z,43.151
2018-01-27T18:32:26.000Z,43.882
2018-01-27T18:42:27.000Z,44.104
2018-01-27T18:52:27.000Z,44.386
2018-01-27T19:02:27.000Z,44.402
2018-01-27T19:12:27.000Z,44.639
2018-01-27T19:22:27.000Z,44.686
2018-01-27T19:32:27.000Z,44.323
2018-01-27T19:42:27.000Z,44.139
2018-01-27T19:52:27.000Z,44.152
2018-01-27T20:02:27.000Z,44.218
2018-01-27T20:12:27.000Z,44.056
2018-01-27T20:22:27.000Z,44.376
2018-01-27T20:32:27.000Z,43.686
2018-01-27T20:42:27.000Z,43.841
2018-01-27T20:52:30.000Z,43.931
2018-01-27T21:02:27.000Z,43.592
2018-01-27T21:12:27.000Z,43.382
2018-01-27T21:22:27.000Z,43.502
2018-01-27T21:32:27.000Z,43.625
2018-01-27T21:42:27.000Z,43.502
2018-01-27T21:52:27.000Z,43.448
2018-01-27T22:02:27.000Z,43.238
2018-01-27T22:12:27.000Z,43.355
2018-01-27T22:22:27.000Z,43.597
2018-01-27T22:32:27.000Z,43.508
2018-01-27T22:42:27.000Z,43.685
2018-01-27T22:52:27.000Z,43.659
2018-01-27T23:02:27.000Z,43.52
2018-01-27T23:12:27.000Z,43.814
2018-01-27T23:22:27.000Z,43.666
2018-01-27T23:32:27.000Z,43.826
2018-01-27T23:42:27.000Z,44.006
2018-01-27T23:52:27.000Z,44.013
